createdAt,value
2019-03-18T00:02:22.265Z,2.60
2019-03-18T00:04:49.896Z,2.67
2019-03-18T00:07:17.553Z,2.70
2019-03-18T00:09:46.335Z,2.30
2019-03-18T00:12:14.010Z,2.30
2019-03-18T00:14:42.662Z,2.70
2019-03-18T00:17:10.822Z,2.30
2019-03-18T00:19:38.732Z,3.70
2019-03-18T00:22:07.029Z,2.90
2019-03-18T00:24:34.692Z,6.37
2019-03-18T00:27:02.713Z,2.80
2019-03-18T00:29:30.441Z,3.17
2019-03-18T00:31:58.326Z,3.20
2019-03-18T00:34:26.500Z,2.90
2019-03-18T00:36:54.483Z,2.30
2019-03-18T00:39:22.181Z,2.30
2019-03-18T00:41:50.217Z,2.30
2019-03-18T00:44:18.150Z,2.60
2019-03-18T00:46:46.489Z,2.80
2019-03-18T00:49:14.814Z,3.43
2019-03-18T00:51:43.012Z,2.63
2019-03-18T00:54:11.534Z,2.43
2019-03-18T00:56:39.802Z,2.23
2019-03-18T00:59:07.716Z,2.53
2019-03-18T01:01:36.183Z,2.40
2019-03-18T01:04:04.190Z,2.60
2019-03-18T01:06:32.176Z,2.70
2019-03-18T01:09:00.101Z,2.43
2019-03-18T01:11:28.057Z,2.50
2019-03-18T01:13:55.968Z,2.33
2019-03-18T01:16:23.943Z,2.57
2019-03-18T01:18:51.850Z,2.90
2019-03-18T01:21:19.512Z,6.60
2019-03-18T01:23:47.889Z,2.47
2019-03-18T01:26:15.985Z,2.70
2019-03-18T01:28:44.318Z,3.80
2019-03-18T01:31:12.822Z,3.03
2019-03-18T01:33:40.843Z,3.00
2019-03-18T01:36:09.053Z,3.73
2019-03-18T01:38:36.769Z,2.47
2019-03-18T01:41:04.419Z,2.30
2019-03-18T01:43:33.087Z,2.57
2019-03-18T01:46:01.420Z,2.77
2019-03-18T01:48:29.654Z,2.83
2019-03-18T01:50:57.653Z,4.63
2019-03-18T01:53:25.615Z,7.23
2019-03-18T01:55:53.544Z,2.43
2019-03-18T01:58:21.181Z,2.43
2019-03-18T02:00:49.435Z,2.57
2019-03-18T02:03:17.076Z,3.70
2019-03-18T02:05:45.291Z,2.87
2019-03-18T02:08:13.337Z,4.20
2019-03-18T02:10:41.630Z,2.43
2019-03-18T02:13:09.274Z,4.47
2019-03-18T02:15:37.482Z,2.57
2019-03-18T02:18:05.436Z,3.00
2019-03-18T02:20:33.648Z,4.60
2019-03-18T02:23:02.055Z,3.10
2019-03-18T02:25:29.710Z,2.73
2019-03-18T02:27:58.050Z,3.47
2019-03-18T02:30:26.479Z,3.63
2019-03-18T02:32:54.466Z,3.50
2019-03-18T02:35:22.407Z,3.53
2019-03-18T02:37:51.218Z,2.47
2019-03-18T02:40:19.185Z,3.77
2019-03-18T02:42:46.851Z,6.27
2019-03-18T02:45:14.552Z,3.10
2019-03-18T02:47:42.204Z,2.57
2019-03-18T02:50:09.949Z,2.50
2019-03-18T02:52:38.172Z,6.60
2019-03-18T02:55:06.024Z,3.37
2019-03-18T02:57:33.914Z,5.13
2019-03-18T03:00:02.112Z,3.53
2019-03-18T03:02:30.741Z,2.33
2019-03-18T03:04:59.013Z,4.43
2019-03-18T03:07:26.940Z,4.83
2019-03-18T03:09:54.698Z,3.73
2019-03-18T03:12:22.636Z,4.30
2019-03-18T03:14:50.362Z,2.73
2019-03-18T03:17:21.633Z,5.57
2019-03-18T03:19:47.732Z,3.03
2019-03-18T03:22:15.942Z,2.73
2019-03-18T03:24:44.423Z,5.57
2019-03-18T03:27:13.106Z,2.97
2019-03-18T03:29:41.054Z,2.30
2019-03-18T03:32:08.691Z,3.50
2019-03-18T03:34:36.355Z,2.67
2019-03-18T03:37:04.325Z,2.67
2019-03-18T03:39:32.247Z,4.77
2019-03-18T03:41:59.895Z,2.83
2019-03-18T03:44:28.133Z,3.33
2019-03-18T03:46:56.085Z,2.40
2019-03-18T03:49:24.113Z,2.70
2019-03-18T03:51:52.097Z,3.93
2019-03-18T03:54:20.355Z,2.37
2019-03-18T03:56:48.119Z,4.67
2019-03-18T03:59:16.367Z,3.00
2019-03-18T04:01:44.314Z,5.33
2019-03-18T04:04:12.233Z,3.67
2019-03-18T04:06:40.692Z,5.80
2019-03-18T04:09:08.911Z,2.60
2019-03-18T04:11:37.229Z,3.80
2019-03-18T04:14:05.522Z,6.90
2019-03-18T04:16:33.497Z,3.50
2019-03-18T04:19:01.485Z,4.83
2019-03-18T04:21:29.120Z,2.47
2019-03-18T04:23:57.098Z,4.60
2019-03-18T04:26:25.377Z,2.97
2019-03-18T04:28:53.257Z,3.30
2019-03-18T04:31:21.448Z,6.17
2019-03-18T04:33:49.437Z,3.90
2019-03-18T04:36:17.149Z,2.93
2019-03-18T04:38:45.093Z,7.77
2019-03-18T04:41:13.311Z,3.40
2019-03-18T04:43:40.962Z,2.87
2019-03-18T04:46:09.143Z,4.60
2019-03-18T04:48:36.783Z,3.53
2019-03-18T04:51:04.434Z,4.80
2019-03-18T04:53:32.697Z,4.37
2019-03-18T04:56:00.674Z,4.10
2019-03-18T04:58:28.654Z,6.50
2019-03-18T05:00:56.634Z,6.03
2019-03-18T05:03:24.561Z,9.60
2019-03-18T05:05:52.223Z,4.40
2019-03-18T05:08:20.163Z,7.87
2019-03-18T05:10:47.804Z,4.33
2019-03-18T05:13:15.819Z,4.80
2019-03-18T05:15:44.071Z,7.73
2019-03-18T05:18:12.031Z,6.37
2019-03-18T05:20:40.632Z,5.37
2019-03-18T05:23:09.201Z,10.50
2019-03-18T05:25:37.303Z,6.60
2019-03-18T05:28:05.617Z,5.87
2019-03-18T05:30:33.889Z,5.77
2019-03-18T05:33:02.117Z,5.07
2019-03-18T05:35:30.477Z,5.43
2019-03-18T05:37:58.756Z,7.13
2019-03-18T05:40:26.727Z,5.03
2019-03-18T05:42:54.696Z,7.50
2019-03-18T05:45:22.972Z,7.60
2019-03-18T05:47:50.737Z,4.97
2019-03-18T05:50:19.132Z,7.63
2019-03-18T05:52:47.054Z,5.63
2019-03-18T05:55:15.005Z,8.50
2019-03-18T05:57:42.990Z,5.67
2019-03-18T06:00:10.985Z,7.40
2019-03-18T06:02:39.265Z,10.07
2019-03-18T06:05:07.367Z,8.93
2019-03-18T06:07:35.289Z,8.63
2019-03-18T06:10:03.001Z,7.60
2019-03-18T06:12:31.553Z,9.63
2019-03-18T06:14:59.499Z,8.40
2019-03-18T06:17:27.813Z,17.90
2019-03-18T06:19:55.482Z,12.30
2019-03-18T06:22:23.947Z,6.50
2019-03-18T06:24:51.940Z,6.03
2019-03-18T06:27:20.257Z,11.00
2019-03-18T06:29:47.940Z,11.97
2019-03-18T06:32:15.983Z,12.80
2019-03-18T06:34:44.150Z,8.13
2019-03-18T06:37:12.103Z,11.23
2019-03-18T06:39:40.026Z,8.00
2019-03-18T06:42:08.183Z,10.50
2019-03-18T06:44:35.835Z,6.97
2019-03-18T06:47:03.883Z,9.83
2019-03-18T06:49:32.201Z,8.93
2019-03-18T06:52:00.186Z,12.80
2019-03-18T06:54:28.099Z,8.47
2019-03-18T06:56:55.824Z,10.13
2019-03-18T06:59:24.253Z,7.77
2019-03-18T07:01:51.921Z,9.80
2019-03-18T07:04:19.569Z,8.50
2019-03-18T07:06:47.496Z,12.40
2019-03-18T07:09:15.870Z,11.80
2019-03-18T07:11:44.141Z,8.30
2019-03-18T07:14:11.813Z,7.50
2019-03-18T07:16:40.091Z,9.23
2019-03-18T07:19:08.341Z,8.50
2019-03-18T07:21:36.914Z,12.93
2019-03-18T07:24:04.563Z,8.73
2019-03-18T07:26:32.787Z,7.70
2019-03-18T07:29:00.436Z,9.57
2019-03-18T07:31:28.613Z,8.40
2019-03-18T07:33:59.778Z,11.30
2019-03-18T07:36:27.450Z,9.10
2019-03-18T07:38:55.662Z,9.00
2019-03-18T07:41:23.320Z,10.40
2019-03-18T07:43:51.745Z,9.40
2019-03-18T07:46:19.837Z,10.00
2019-03-18T07:48:47.835Z,11.40
2019-03-18T07:51:16.206Z,10.10
2019-03-18T07:53:43.870Z,12.20
2019-03-18T07:56:11.836Z,8.90
2019-03-18T07:58:39.473Z,15.90
2019-03-18T08:01:07.329Z,9.57
2019-03-18T08:03:36.709Z,13.47
2019-03-18T08:06:04.746Z,11.67
2019-03-18T08:08:32.495Z,10.13
2019-03-18T08:11:00.634Z,8.83
2019-03-18T08:13:29.117Z,10.77
2019-03-18T08:15:57.049Z,13.00
2019-03-18T08:18:25.261Z,13.20
2019-03-18T08:20:53.488Z,11.70
2019-03-18T08:23:21.216Z,14.87
2019-03-18T08:25:49.569Z,9.13
2019-03-18T08:28:18.166Z,11.33
2019-03-18T08:30:46.258Z,16.60
2019-03-18T08:33:14.916Z,13.20
2019-03-18T08:35:43.503Z,10.37
2019-03-18T08:38:11.486Z,13.80
2019-03-18T08:40:39.370Z,11.17
2019-03-18T08:43:07.710Z,12.13
2019-03-18T08:45:35.628Z,15.50
2019-03-18T08:48:03.929Z,17.37
2019-03-18T08:50:32.288Z,12.33
2019-03-18T08:53:00.277Z,11.40
2019-03-18T08:55:28.255Z,9.80
2019-03-18T08:57:57.108Z,14.27
2019-03-18T09:00:24.761Z,17.60
2019-03-18T09:02:52.486Z,12.13
2019-03-18T09:05:20.141Z,10.17
2019-03-18T09:07:48.401Z,11.83
2019-03-18T09:10:16.085Z,12.30
2019-03-18T09:12:44.325Z,9.73
2019-03-18T09:15:11.997Z,9.10
2019-03-18T09:17:40.029Z,10.00
2019-03-18T09:20:08.380Z,9.00
2019-03-18T09:22:36.546Z,10.77
2019-03-18T09:25:04.961Z,7.40
2019-03-18T09:27:32.990Z,14.43
2019-03-18T09:30:00.633Z,11.53
2019-03-18T09:32:29.254Z,7.40
2019-03-18T09:34:57.358Z,8.53
2019-03-18T09:37:25.588Z,8.23
2019-03-18T09:39:53.500Z,11.30
2019-03-18T09:42:21.246Z,5.77
2019-03-18T09:44:49.430Z,8.60
2019-03-18T09:47:17.341Z,11.80
2019-03-18T09:49:44.984Z,6.77
2019-03-18T09:52:12.964Z,7.70
2019-03-18T09:54:40.922Z,5.23
2019-03-18T09:57:09.235Z,6.53
2019-03-18T09:59:36.890Z,7.50
2019-03-18T10:02:04.549Z,9.33
2019-03-18T10:04:32.573Z,7.73
2019-03-18T10:07:00.912Z,5.67
2019-03-18T10:09:28.786Z,9.70
2019-03-18T10:11:56.466Z,7.83
2019-03-18T10:14:24.729Z,4.43
2019-03-18T10:16:52.492Z,15.57
2019-03-18T10:19:20.375Z,3.70
2019-03-18T10:21:48.637Z,4.93
2019-03-18T10:24:17.672Z,9.90
2019-03-18T10:26:45.599Z,10.00
2019-03-18T10:29:13.522Z,8.60
2019-03-18T10:31:41.793Z,8.47
2019-03-18T10:34:09.445Z,4.63
2019-03-18T10:36:37.090Z,2.63
2019-03-18T10:39:06.768Z,4.27
2019-03-18T10:41:34.947Z,4.83
2019-03-18T10:44:03.345Z,11.10
2019-03-18T10:46:31.249Z,4.50
2019-03-18T10:48:58.918Z,12.63
2019-03-18T10:51:26.550Z,7.00
2019-03-18T10:53:54.290Z,3.53
2019-03-18T10:56:22.277Z,9.57
2019-03-18T10:58:50.047Z,7.03
2019-03-18T11:01:17.762Z,4.90
2019-03-18T11:03:45.458Z,3.03
2019-03-18T11:06:13.733Z,8.03
2019-03-18T11:08:41.393Z,7.57
2019-03-18T11:11:09.301Z,9.97
2019-03-18T11:13:37.521Z,4.60
2019-03-18T11:16:05.794Z,4.33
2019-03-18T11:18:33.802Z,3.97
2019-03-18T11:21:01.732Z,6.30
2019-03-18T11:23:30.010Z,4.27
2019-03-18T11:25:57.763Z,6.90
2019-03-18T11:28:25.977Z,7.53
2019-03-18T11:30:53.937Z,12.67
2019-03-18T11:33:21.952Z,3.23
2019-03-18T11:35:50.588Z,4.77
2019-03-18T11:38:18.266Z,4.83
2019-03-18T11:40:45.923Z,4.60
2019-03-18T11:43:13.925Z,6.13
2019-03-18T11:45:41.582Z,2.50
2019-03-18T11:48:09.534Z,6.63
2019-03-18T11:50:37.522Z,2.90
2019-03-18T11:53:14.290Z,2.80
2019-03-18T11:55:35.450Z,2.20
2019-03-18T11:58:03.638Z,6.30
2019-03-18T12:00:31.855Z,6.30
2019-03-18T12:02:59.797Z,5.30
2019-03-18T12:05:28.155Z,6.43
2019-03-18T12:07:55.822Z,2.97
2019-03-18T12:10:25.601Z,3.33
2019-03-18T12:12:52.820Z,3.30
2019-03-18T12:15:21.713Z,2.10
2019-03-18T12:17:49.905Z,1.83
2019-03-18T12:20:24.302Z,3.63
2019-03-18T12:22:47.766Z,4.10
2019-03-18T12:25:16.409Z,3.80
2019-03-18T12:27:44.060Z,1.53
2019-03-18T12:30:13.559Z,3.33
2019-03-18T12:32:41.489Z,2.57
2019-03-18T12:35:09.410Z,2.60
2019-03-18T12:37:37.522Z,4.33
2019-03-18T12:40:05.956Z,4.20
2019-03-18T12:42:33.892Z,3.77
2019-03-18T12:45:02.115Z,3.33
2019-03-18T12:47:30.460Z,4.10
2019-03-18T12:49:58.094Z,5.23
2019-03-18T12:52:25.997Z,7.93
2019-03-18T12:54:54.187Z,6.13
2019-03-18T12:57:22.371Z,7.47
2019-03-18T12:59:53.405Z,7.87
2019-03-18T13:02:21.078Z,9.70
2019-03-18T13:04:49.087Z,4.63
2019-03-18T13:07:17.137Z,2.73
2019-03-18T13:09:46.078Z,4.17
2019-03-18T13:12:14.349Z,1.70
2019-03-18T13:14:42.632Z,4.23
2019-03-18T13:17:10.568Z,1.67
2019-03-18T13:19:38.229Z,5.50
2019-03-18T13:22:06.444Z,3.50
2019-03-18T13:24:34.084Z,2.50
2019-03-18T13:27:02.014Z,4.10
2019-03-18T13:29:29.933Z,2.03
2019-03-18T13:31:58.138Z,6.43
2019-03-18T13:34:26.357Z,2.40
2019-03-18T13:36:54.685Z,4.60
2019-03-18T13:39:23.077Z,3.23
2019-03-18T13:41:51.237Z,6.00
2019-03-18T13:44:19.294Z,4.87
2019-03-18T13:46:47.598Z,3.90
2019-03-18T13:49:16.014Z,2.60
2019-03-18T13:51:44.138Z,2.40
2019-03-18T13:54:12.414Z,2.30
2019-03-18T13:56:40.791Z,4.37
2019-03-18T13:59:08.765Z,3.83
2019-03-18T14:01:36.777Z,3.40
2019-03-18T14:04:04.690Z,2.97
2019-03-18T14:06:32.340Z,5.33
2019-03-18T14:09:00.292Z,3.30
2019-03-18T14:11:28.232Z,5.90
2019-03-18T14:13:56.226Z,4.83
2019-03-18T14:16:24.237Z,2.80
2019-03-18T14:18:51.880Z,7.63
2019-03-18T14:21:19.887Z,3.47
2019-03-18T14:23:48.253Z,2.13
2019-03-18T14:26:15.957Z,3.90
2019-03-18T14:28:43.709Z,4.23
2019-03-18T14:31:11.701Z,2.93
2019-03-18T14:33:39.708Z,2.57
2019-03-18T14:36:07.733Z,4.30
2019-03-18T14:38:38.318Z,4.73
2019-03-18T14:41:05.398Z,2.37
2019-03-18T14:43:33.402Z,2.67
2019-03-18T14:46:01.396Z,3.20
2019-03-18T14:48:29.644Z,3.73
2019-03-18T14:50:57.607Z,4.73
2019-03-18T14:53:25.309Z,2.57
2019-03-18T14:55:53.413Z,4.07
2019-03-18T14:58:21.411Z,2.40
2019-03-18T15:00:49.629Z,3.00
2019-03-18T15:03:17.693Z,5.80
2019-03-18T15:05:45.683Z,3.93
2019-03-18T15:08:13.947Z,2.47
2019-03-18T15:10:41.588Z,4.27
2019-03-18T15:13:09.622Z,5.57
2019-03-18T15:15:38.063Z,5.37
2019-03-18T15:18:06.010Z,2.43
2019-03-18T15:20:33.664Z,5.03
2019-03-18T15:23:01.921Z,4.20
2019-03-18T15:25:29.609Z,6.97
2019-03-18T15:27:57.974Z,5.67
2019-03-18T15:30:26.250Z,3.03
2019-03-18T15:32:54.205Z,7.83
2019-03-18T15:35:21.861Z,7.00
2019-03-18T15:37:49.567Z,6.20
2019-03-18T15:40:17.309Z,7.93
2019-03-18T15:42:45.210Z,8.47
2019-03-18T15:45:13.489Z,4.33
2019-03-18T15:47:41.489Z,5.40
2019-03-18T15:50:12.849Z,5.50
2019-03-18T15:52:40.153Z,6.30
2019-03-18T15:55:08.145Z,6.07
2019-03-18T15:57:35.876Z,4.93
2019-03-18T16:00:04.283Z,4.50
2019-03-18T16:02:32.873Z,4.40
2019-03-18T16:05:01.028Z,2.80
2019-03-18T16:07:29.406Z,4.03
2019-03-18T16:09:57.055Z,3.70
2019-03-18T16:12:25.268Z,6.07
2019-03-18T16:14:53.405Z,3.30
2019-03-18T16:17:21.696Z,5.53
2019-03-18T16:19:49.340Z,6.40
2019-03-18T16:22:23.521Z,4.17
2019-03-18T16:24:50.717Z,5.50
2019-03-18T16:27:19.045Z,3.37
2019-03-18T16:29:47.336Z,4.80
2019-03-18T16:32:15.677Z,4.37
2019-03-18T16:34:43.325Z,5.03
2019-03-18T16:37:11.496Z,9.40
2019-03-18T16:39:39.654Z,2.20
2019-03-18T16:42:07.659Z,6.10
2019-03-18T16:44:35.434Z,3.80
2019-03-18T16:47:03.392Z,2.93
2019-03-18T16:49:31.046Z,4.97
2019-03-18T16:51:59.052Z,5.97
2019-03-18T16:54:26.958Z,2.20
2019-03-18T16:56:54.704Z,2.60
2019-03-18T16:59:22.641Z,4.20
2019-03-18T17:01:50.974Z,4.97
2019-03-18T17:04:18.913Z,5.47
2019-03-18T17:06:47.181Z,4.03
2019-03-18T17:09:15.104Z,6.20
2019-03-18T17:11:43.349Z,6.03
2019-03-18T17:14:11.636Z,2.33
2019-03-18T17:16:39.914Z,4.80
2019-03-18T17:19:07.954Z,5.70
2019-03-18T17:21:35.893Z,10.93
2019-03-18T17:24:03.552Z,24.00
2019-03-18T17:26:31.578Z,34.93
2019-03-18T17:28:59.517Z,43.33
2019-03-18T17:31:27.461Z,28.40
2019-03-18T17:33:55.474Z,12.93
2019-03-18T17:36:23.406Z,7.73
2019-03-18T17:38:51.381Z,5.63
2019-03-18T17:41:19.385Z,5.63
2019-03-18T17:43:47.025Z,3.23
2019-03-18T17:46:15.189Z,5.53
2019-03-18T17:48:43.513Z,6.70
2019-03-18T17:51:11.793Z,5.83
2019-03-18T17:53:39.456Z,7.20
2019-03-18T17:56:07.874Z,7.20
2019-03-18T17:58:35.565Z,10.53
2019-03-18T18:01:03.570Z,6.60
2019-03-18T18:03:31.484Z,9.33
2019-03-18T18:05:59.148Z,11.63
2019-03-18T18:08:27.185Z,6.20
2019-03-18T18:10:55.294Z,5.33
2019-03-18T18:13:23.514Z,9.60
2019-03-18T18:15:51.552Z,11.10
2019-03-18T18:18:19.494Z,7.57
2019-03-18T18:20:47.157Z,4.83
2019-03-18T18:23:15.221Z,5.50
2019-03-18T18:25:43.620Z,8.70
2019-03-18T18:28:11.989Z,7.07
2019-03-18T18:30:39.990Z,5.70
2019-03-18T18:33:08.454Z,7.33
2019-03-18T18:35:36.424Z,5.03
2019-03-18T18:38:04.089Z,9.53
2019-03-18T18:40:31.816Z,6.00
2019-03-18T18:43:00.004Z,6.90
2019-03-18T18:45:27.979Z,3.23
2019-03-18T18:47:56.001Z,3.83
2019-03-18T18:50:23.928Z,6.63
2019-03-18T18:52:52.468Z,5.53
2019-03-18T18:55:20.276Z,3.77
2019-03-18T18:57:48.198Z,5.53
2019-03-18T19:00:16.307Z,5.30
2019-03-18T19:02:44.489Z,3.60
2019-03-18T19:05:12.522Z,5.47
2019-03-18T19:07:40.793Z,4.57
2019-03-18T19:10:08.684Z,7.40
2019-03-18T19:12:36.602Z,5.53
2019-03-18T19:15:04.745Z,5.13
2019-03-18T19:17:33.082Z,7.97
2019-03-18T19:20:01.354Z,4.13
2019-03-18T19:22:29.559Z,5.50
2019-03-18T19:24:57.898Z,8.83
2019-03-18T19:27:26.472Z,3.87
2019-03-18T19:29:54.454Z,6.70
2019-03-18T19:32:22.485Z,4.80
2019-03-18T19:34:50.769Z,1.80
2019-03-18T19:37:19.281Z,9.40
2019-03-18T19:39:50.016Z,6.83
2019-03-18T19:42:18.188Z,5.60
2019-03-18T19:44:47.093Z,2.50
2019-03-18T19:47:15.416Z,4.40
2019-03-18T19:49:43.382Z,3.70
2019-03-18T19:52:11.295Z,2.60
2019-03-18T19:54:39.449Z,3.03
2019-03-18T19:57:07.164Z,3.10
2019-03-18T19:59:34.806Z,3.23
2019-03-18T20:02:02.531Z,3.07
2019-03-18T20:04:30.262Z,7.97
2019-03-18T20:06:58.427Z,18.00
2019-03-18T20:09:26.785Z,16.50
2019-03-18T20:11:55.153Z,17.13
2019-03-18T20:14:23.335Z,13.10
2019-03-18T20:16:51.083Z,10.90
2019-03-18T20:19:19.391Z,6.50
2019-03-18T20:21:47.494Z,5.43
2019-03-18T20:24:15.470Z,7.13
2019-03-18T20:26:43.525Z,4.33
2019-03-18T20:29:11.161Z,5.83
2019-03-18T20:31:39.113Z,7.97
2019-03-18T20:34:07.162Z,5.20
2019-03-18T20:36:34.848Z,8.17
2019-03-18T20:39:02.928Z,7.60
2019-03-18T20:41:30.668Z,7.47
2019-03-18T20:43:58.560Z,9.80
2019-03-18T20:46:26.657Z,4.03
2019-03-18T20:48:54.315Z,6.47
2019-03-18T20:51:22.552Z,10.70
2019-03-18T20:53:50.532Z,7.13
2019-03-18T20:56:18.423Z,5.93
2019-03-18T20:58:46.528Z,5.90
2019-03-18T21:01:15.033Z,7.90
2019-03-18T21:03:42.693Z,5.53
2019-03-18T21:06:10.962Z,4.63
2019-03-18T21:08:39.463Z,3.33
2019-03-18T21:11:07.689Z,6.67
2019-03-18T21:13:35.984Z,7.73
2019-03-18T21:16:04.605Z,9.60
2019-03-18T21:18:32.813Z,7.37
2019-03-18T21:21:00.750Z,3.23
2019-03-18T21:23:28.441Z,8.60
2019-03-18T21:25:56.789Z,7.77
2019-03-18T21:28:24.797Z,5.00
2019-03-18T21:30:53.102Z,7.20
2019-03-18T21:33:20.827Z,4.83
2019-03-18T21:35:48.907Z,7.30
2019-03-18T21:38:16.546Z,8.13
2019-03-18T21:40:44.210Z,9.03
2019-03-18T21:43:11.849Z,6.50
2019-03-18T21:45:40.130Z,6.37
2019-03-18T21:48:08.162Z,7.43
2019-03-18T21:50:36.077Z,9.47
2019-03-18T21:53:04.122Z,5.53
2019-03-18T21:55:32.314Z,6.97
2019-03-18T21:57:59.974Z,8.57
2019-03-18T22:00:28.074Z,8.70
2019-03-18T22:02:56.092Z,6.20
2019-03-18T22:05:24.012Z,7.30
2019-03-18T22:07:51.685Z,6.53
2019-03-18T22:10:19.780Z,5.13
2019-03-18T22:12:47.631Z,5.73
2019-03-18T22:15:15.690Z,5.53
2019-03-18T22:17:43.739Z,7.90
2019-03-18T22:20:12.742Z,5.27
2019-03-18T22:22:41.223Z,5.63
2019-03-18T22:25:08.998Z,4.10
2019-03-18T22:27:36.657Z,7.30
2019-03-18T22:30:05.186Z,4.00
2019-03-18T22:32:33.122Z,3.73
2019-03-18T22:35:01.125Z,6.80
2019-03-18T22:37:29.428Z,6.73
2019-03-18T22:39:57.489Z,5.40
2019-03-18T22:42:25.433Z,7.40
2019-03-18T22:44:53.541Z,7.20
2019-03-18T22:47:21.867Z,7.97
2019-03-18T22:49:49.888Z,5.13
2019-03-18T22:52:18.582Z,9.40
2019-03-18T22:54:55.545Z,4.70
2019-03-18T22:57:18.509Z,5.23
2019-03-18T22:59:46.489Z,5.40
2019-03-18T23:02:14.572Z,6.73
2019-03-18T23:04:42.851Z,5.50
2019-03-18T23:07:11.114Z,9.13
2019-03-18T23:09:39.329Z,3.27
2019-03-18T23:12:07.658Z,4.20
2019-03-18T23:14:35.597Z,14.93
2019-03-18T23:17:03.246Z,3.70
2019-03-18T23:19:31.773Z,4.60
2019-03-18T23:21:59.793Z,4.70
2019-03-18T23:24:27.763Z,5.07
2019-03-18T23:26:55.747Z,4.30
2019-03-18T23:29:23.382Z,6.73
2019-03-18T23:31:51.361Z,5.30
2019-03-18T23:34:19.432Z,5.40
2019-03-18T23:36:47.170Z,7.50
2019-03-18T23:39:15.535Z,7.20
2019-03-18T23:41:43.254Z,4.63
2019-03-18T23:44:11.203Z,5.43
2019-03-18T23:46:39.539Z,6.50
2019-03-18T23:49:07.229Z,6.20
2019-03-18T23:51:35.413Z,5.80
2019-03-18T23:54:03.350Z,7.53
2019-03-18T23:56:31.723Z,5.63
2019-03-18T23:58:59.440Z,7.70
